sensor_id;sensor_type;location;lat;lon;timestamp;temperature;humidity
11639;DHT22;5875;35.940;126.892;2024-01-11T00:00:10;0.70;99.90
11639;DHT22;5875;35.940;126.892;2024-01-11T00:02:38;0.70;99.90
11639;DHT22;5875;35.940;126.892;2024-01-11T00:05:05;0.80;99.90
11639;DHT22;5875;35.940;126.892;2024-01-11T00:07:36;0.80;99.90
11639;DHT22;5875;35.940;126.892;2024-01-11T00:10:04;0.80;99.90
11639;DHT22;5875;35.940;126.892;2024-01-11T00:12:31;0.90;99.90
11639;DHT22;5875;35.940;126.892;2024-01-11T00:14:58;1.00;99.90
11639;DHT22;5875;35.940;126.892;2024-01-11T00:17:25;1.00;99.90
11639;DHT22;5875;35.940;126.892;2024-01-11T00:19:53;1.00;99.90
11639;DHT22;5875;35.940;126.892;2024-01-11T00:22:22;1.00;99.90
11639;DHT22;5875;35.940;126.892;2024-01-11T00:24:49;1.00;99.90
11639;DHT22;5875;35.940;126.892;2024-01-11T00:27:17;1.10;99.90
11639;DHT22;5875;35.940;126.892;2024-01-11T00:29:44;1.00;99.90
11639;DHT22;5875;35.940;126.892;2024-01-11T00:32:11;1.00;99.90
11639;DHT22;5875;35.940;126.892;2024-01-11T00:34:38;1.00;99.90
11639;DHT22;5875;35.940;126.892;2024-01-11T00:37:05;1.00;99.90
11639;DHT22;5875;35.940;126.892;2024-01-11T00:39:32;1.30;99.90
11639;DHT22;5875;35.940;126.892;2024-01-11T00:42:00;1.30;99.90
11639;DHT22;5875;35.940;126.892;2024-01-11T00:44:27;1.50;99.90
11639;DHT22;5875;35.940;126.892;2024-01-11T00:46:57;1.60;99.90
11639;DHT22;5875;35.940;126.892;2024-01-11T00:49:24;1.70;99.90
11639;DHT22;5875;35.940;126.892;2024-01-11T00:51:54;1.90;99.90
11639;DHT22;5875;35.940;126.892;2024-01-11T00:54:21;2.00;99.90
11639;DHT22;5875;35.940;126.892;2024-01-11T00:56:50;1.90;99.90
11639;DHT22;5875;35.940;126.892;2024-01-11T00:59:17;1.90;99.90
11639;DHT22;5875;35.940;126.892;2024-01-11T01:01:48;2.00;99.90
11639;DHT22;5875;35.940;126.892;2024-01-11T01:04:15;2.10;99.90
11639;DHT22;5875;35.940;126.892;2024-01-11T01:06:45;2.20;99.90
11639;DHT22;5875;35.940;126.892;2024-01-11T01:09:12;2.10;99.90
11639;DHT22;5875;35.940;126.892;2024-01-11T01:11:40;2.20;99.90
11639;DHT22;5875;35.940;126.892;2024-01-11T01:14:07;2.30;99.90
11639;DHT22;5875;35.940;126.892;2024-01-11T01:16:34;2.60;99.90
11639;DHT22;5875;35.940;126.892;2024-01-11T01:19:01;2.70;99.90
11639;DHT22;5875;35.940;126.892;2024-01-11T01:21:28;2.60;99.90
11639;DHT22;5875;35.940;126.892;2024-01-11T01:23:56;2.80;99.90
11639;DHT22;5875;35.940;126.892;2024-01-11T01:26:23;3.00;99.90
11639;DHT22;5875;35.940;126.892;2024-01-11T01:28:50;2.90;99.90
11639;DHT22;5875;35.940;126.892;2024-01-11T01:31:17;2.90;99.90
11639;DHT22;5875;35.940;126.892;2024-01-11T01:33:44;2.70;99.90
11639;DHT22;5875;35.940;126.892;2024-01-11T01:36:11;2.60;99.90
11639;DHT22;5875;35.940;126.892;2024-01-11T01:38:38;2.60;99.90
11639;DHT22;5875;35.940;126.892;2024-01-11T01:41:06;2.50;99.90
11639;DHT22;5875;35.940;126.892;2024-01-11T01:43:34;2.50;99.90
11639;DHT22;5875;35.940;126.892;2024-01-11T01:46:01;2.60;99.90
11639;DHT22;5875;35.940;126.892;2024-01-11T01:48:29;2.80;99.90
11639;DHT22;5875;35.940;126.892;2024-01-11T01:50:56;2.90;99.90
11639;DHT22;5875;35.940;126.892;2024-01-11T01:53:28;2.90;99.90
11639;DHT22;5875;35.940;126.892;2024-01-11T01:55:55;3.10;99.90
11639;DHT22;5875;35.940;126.892;2024-01-11T01:58:23;3.10;99.90
11639;DHT22;5875;35.940;126.892;2024-01-11T02:00:51;3.10;99.90
11639;DHT22;5875;35.940;126.892;2024-01-11T02:03:19;3.30;99.90
11639;DHT22;5875;35.940;126.892;2024-01-11T02:05:46;3.30;99.90
11639;DHT22;5875;35.940;126.892;2024-01-11T02:08:16;3.40;99.90
11639;DHT22;5875;35.940;126.892;2024-01-11T02:10:44;3.50;99.90
11639;DHT22;5875;35.940;126.892;2024-01-11T02:13:12;3.40;99.90
11639;DHT22;5875;35.940;126.892;2024-01-11T02:15:40;3.40;99.90
11639;DHT22;5875;35.940;126.892;2024-01-11T02:18:07;3.50;99.90
11639;DHT22;5875;35.940;126.892;2024-01-11T02:20:34;3.50;99.90
11639;DHT22;5875;35.940;126.892;2024-01-11T02:23:15;3.60;99.90
11639;DHT22;5875;35.940;126.892;2024-01-11T02:25:44;3.80;99.90
11639;DHT22;5875;35.940;126.892;2024-01-11T02:28:11;3.90;99.90
11639;DHT22;5875;35.940;126.892;2024-01-11T02:30:38;3.90;99.90
11639;DHT22;5875;35.940;126.892;2024-01-11T02:33:05;3.90;99.90
11639;DHT22;5875;35.940;126.892;2024-01-11T02:35:37;3.90;99.90
11639;DHT22;5875;35.940;126.892;2024-01-11T02:38:06;4.10;99.90
11639;DHT22;5875;35.940;126.892;2024-01-11T02:40:33;4.40;99.90
11639;DHT22;5875;35.940;126.892;2024-01-11T02:43:10;4.50;99.90
11639;DHT22;5875;35.940;126.892;2024-01-11T02:45:37;4.90;99.90
11639;DHT22;5875;35.940;126.892;2024-01-11T02:48:05;5.20;99.90
11639;DHT22;5875;35.940;126.892;2024-01-11T02:50:33;5.10;99.90
11639;DHT22;5875;35.940;126.892;2024-01-11T02:53:02;5.00;99.90
11639;DHT22;5875;35.940;126.892;2024-01-11T02:55:30;5.20;99.90
11639;DHT22;5875;35.940;126.892;2024-01-11T02:58:00;5.30;99.90
11639;DHT22;5875;35.940;126.892;2024-01-11T03:00:27;5.60;99.90
11639;DHT22;5875;35.940;126.892;2024-01-11T03:02:57;5.90;99.90
11639;DHT22;5875;35.940;126.892;2024-01-11T03:05:24;5.80;99.90
11639;DHT22;5875;35.940;126.892;2024-01-11T03:07:51;6.20;99.90
11639;DHT22;5875;35.940;126.892;2024-01-11T03:10:21;6.50;99.90
11639;DHT22;5875;35.940;126.892;2024-01-11T03:12:48;6.60;99.90
11639;DHT22;5875;35.940;126.892;2024-01-11T03:15:16;6.60;99.90
11639;DHT22;5875;35.940;126.892;2024-01-11T03:17:43;6.80;99.90
11639;DHT22;5875;35.940;126.892;2024-01-11T03:20:10;6.90;99.90
11639;DHT22;5875;35.940;126.892;2024-01-11T03:22:44;7.00;99.90
11639;DHT22;5875;35.940;126.892;2024-01-11T03:25:14;7.20;99.90
11639;DHT22;5875;35.940;126.892;2024-01-11T03:27:42;8.00;99.90
11639;DHT22;5875;35.940;126.892;2024-01-11T03:30:09;8.00;99.90
11639;DHT22;5875;35.940;126.892;2024-01-11T03:32:36;8.30;99.90
11639;DHT22;5875;35.940;126.892;2024-01-11T03:35:08;8.30;99.90
11639;DHT22;5875;35.940;126.892;2024-01-11T03:37:36;8.80;99.90
11639;DHT22;5875;35.940;126.892;2024-01-11T03:40:03;8.90;99.90
11639;DHT22;5875;35.940;126.892;2024-01-11T03:42:31;9.00;99.90
11639;DHT22;5875;35.940;126.892;2024-01-11T03:44:58;9.30;99.90
11639;DHT22;5875;35.940;126.892;2024-01-11T03:47:25;9.80;99.90
11639;DHT22;5875;35.940;126.892;2024-01-11T03:49:52;10.30;99.90
11639;DHT22;5875;35.940;126.892;2024-01-11T03:52:19;10.70;99.90
11639;DHT22;5875;35.940;126.892;2024-01-11T03:54:47;10.70;99.90
11639;DHT22;5875;35.940;126.892;2024-01-11T03:57:15;10.70;99.90
11639;DHT22;5875;35.940;126.892;2024-01-11T03:59:43;10.80;99.90
11639;DHT22;5875;35.940;126.892;2024-01-11T04:02:11;10.30;99.90
11639;DHT22;5875;35.940;126.892;2024-01-11T04:04:38;10.10;99.90
11639;DHT22;5875;35.940;126.892;2024-01-11T04:07:05;9.80;99.90
11639;DHT22;5875;35.940;126.892;2024-01-11T04:09:32;9.50;99.90
11639;DHT22;5875;35.940;126.892;2024-01-11T04:11:59;9.40;99.90
11639;DHT22;5875;35.940;126.892;2024-01-11T04:14:27;9.10;99.90
11639;DHT22;5875;35.940;126.892;2024-01-11T04:16:54;9.10;99.90
11639;DHT22;5875;35.940;126.892;2024-01-11T04:19:21;9.00;99.90
11639;DHT22;5875;35.940;126.892;2024-01-11T04:21:48;8.90;99.90
11639;DHT22;5875;35.940;126.892;2024-01-11T04:24:15;8.80;99.90
11639;DHT22;5875;35.940;126.892;2024-01-11T04:26:42;8.60;99.90
11639;DHT22;5875;35.940;126.892;2024-01-11T04:29:10;8.30;99.90
11639;DHT22;5875;35.940;126.892;2024-01-11T04:31:37;8.20;99.90
11639;DHT22;5875;35.940;126.892;2024-01-11T04:34:04;8.20;99.90
11639;DHT22;5875;35.940;126.892;2024-01-11T04:36:31;8.00;99.90
11639;DHT22;5875;35.940;126.892;2024-01-11T04:38:58;8.10;99.90
11639;DHT22;5875;35.940;126.892;2024-01-11T04:41:25;8.20;99.90
11639;DHT22;5875;35.940;126.892;2024-01-11T04:43:52;8.30;99.90
11639;DHT22;5875;35.940;126.892;2024-01-11T04:46:23;8.30;99.90
11639;DHT22;5875;35.940;126.892;2024-01-11T04:48:50;8.40;99.90
11639;DHT22;5875;35.940;126.892;2024-01-11T04:51:18;8.30;99.90
11639;DHT22;5875;35.940;126.892;2024-01-11T04:53:46;8.30;99.90
11639;DHT22;5875;35.940;126.892;2024-01-11T04:56:17;8.20;99.90
11639;DHT22;5875;35.940;126.892;2024-01-11T04:58:45;8.20;99.90
11639;DHT22;5875;35.940;126.892;2024-01-11T05:01:16;8.20;99.90
11639;DHT22;5875;35.940;126.892;2024-01-11T05:03:44;8.40;99.90
11639;DHT22;5875;35.940;126.892;2024-01-11T05:06:21;8.40;99.90
11639;DHT22;5875;35.940;126.892;2024-01-11T05:08:52;8.40;99.90
11639;DHT22;5875;35.940;126.892;2024-01-11T05:11:20;8.30;99.90
11639;DHT22;5875;35.940;126.892;2024-01-11T05:13:50;8.40;99.90
11639;DHT22;5875;35.940;126.892;2024-01-11T05:16:28;8.40;99.90
11639;DHT22;5875;35.940;126.892;2024-01-11T05:18:57;8.30;99.90
11639;DHT22;5875;35.940;126.892;2024-01-11T05:21:25;7.90;99.90
11639;DHT22;5875;35.940;126.892;2024-01-11T05:23:52;7.90;99.90
11639;DHT22;5875;35.940;126.892;2024-01-11T05:26:19;8.00;99.90
11639;DHT22;5875;35.940;126.892;2024-01-11T05:28:47;8.00;99.90
11639;DHT22;5875;35.940;126.892;2024-01-11T05:31:17;8.20;99.90
11639;DHT22;5875;35.940;126.892;2024-01-11T05:33:45;8.10;99.90
11639;DHT22;5875;35.940;126.892;2024-01-11T05:36:15;8.10;99.90
11639;DHT22;5875;35.940;126.892;2024-01-11T05:38:42;8.00;99.90
11639;DHT22;5875;35.940;126.892;2024-01-11T05:41:09;8.10;99.90
11639;DHT22;5875;35.940;126.892;2024-01-11T05:43:38;8.10;99.90
11639;DHT22;5875;35.940;126.892;2024-01-11T05:46:09;8.00;99.90
11639;DHT22;5875;35.940;126.892;2024-01-11T05:48:36;7.90;99.90
11639;DHT22;5875;35.940;126.892;2024-01-11T05:51:03;7.80;99.90
11639;DHT22;5875;35.940;126.892;2024-01-11T05:53:33;7.90;99.90
11639;DHT22;5875;35.940;126.892;2024-01-11T05:56:08;8.00;99.90
11639;DHT22;5875;35.940;126.892;2024-01-11T05:58:36;8.00;99.90
11639;DHT22;5875;35.940;126.892;2024-01-11T06:01:04;8.00;99.90
11639;DHT22;5875;35.940;126.892;2024-01-11T06:03:32;7.90;99.90
11639;DHT22;5875;35.940;126.892;2024-01-11T06:06:01;7.80;99.90
11639;DHT22;5875;35.940;126.892;2024-01-11T06:08:29;7.70;99.90
11639;DHT22;5875;35.940;126.892;2024-01-11T06:10:57;7.60;99.90
11639;DHT22;5875;35.940;126.892;2024-01-11T06:13:24;7.50;99.90
11639;DHT22;5875;35.940;126.892;2024-01-11T06:15:52;7.60;99.90
11639;DHT22;5875;35.940;126.892;2024-01-11T06:18:19;7.60;99.90
11639;DHT22;5875;35.940;126.892;2024-01-11T06:20:46;7.50;99.90
11639;DHT22;5875;35.940;126.892;2024-01-11T06:23:13;7.50;99.90
11639;DHT22;5875;35.940;126.892;2024-01-11T06:25:42;7.50;99.90
11639;DHT22;5875;35.940;126.892;2024-01-11T06:28:09;7.60;99.90
11639;DHT22;5875;35.940;126.892;2024-01-11T06:30:36;7.70;99.90
11639;DHT22;5875;35.940;126.892;2024-01-11T06:33:04;7.70;99.90
11639;DHT22;5875;35.940;126.892;2024-01-11T06:35:31;7.60;99.90
11639;DHT22;5875;35.940;126.892;2024-01-11T06:37:58;7.70;99.90
11639;DHT22;5875;35.940;126.892;2024-01-11T06:40:25;7.60;99.90
11639;DHT22;5875;35.940;126.892;2024-01-11T06:42:52;7.60;99.90
11639;DHT22;5875;35.940;126.892;2024-01-11T06:45:20;7.60;99.90
11639;DHT22;5875;35.940;126.892;2024-01-11T06:47:47;7.50;99.90
11639;DHT22;5875;35.940;126.892;2024-01-11T06:50:15;7.40;99.90
11639;DHT22;5875;35.940;126.892;2024-01-11T06:52:42;7.40;99.90
11639;DHT22;5875;35.940;126.892;2024-01-11T06:55:10;7.40;99.90
11639;DHT22;5875;35.940;126.892;2024-01-11T06:57:37;7.30;99.90
11639;DHT22;5875;35.940;126.892;2024-01-11T07:00:05;7.30;99.90
11639;DHT22;5875;35.940;126.892;2024-01-11T07:02:36;7.30;99.90
11639;DHT22;5875;35.940;126.892;2024-01-11T07:05:03;7.30;99.90
11639;DHT22;5875;35.940;126.892;2024-01-11T07:07:31;7.20;99.90
11639;DHT22;5875;35.940;126.892;2024-01-11T07:09:59;7.20;99.90
11639;DHT22;5875;35.940;126.892;2024-01-11T07:12:26;7.20;99.90
11639;DHT22;5875;35.940;126.892;2024-01-11T07:14:53;7.20;99.90
11639;DHT22;5875;35.940;126.892;2024-01-11T07:17:20;7.10;99.90
11639;DHT22;5875;35.940;126.892;2024-01-11T07:19:49;7.10;99.90
11639;DHT22;5875;35.940;126.892;2024-01-11T07:22:16;7.10;99.90
11639;DHT22;5875;35.940;126.892;2024-01-11T07:24:43;7.10;99.90
11639;DHT22;5875;35.940;126.892;2024-01-11T07:27:10;7.00;99.90
11639;DHT22;5875;35.940;126.892;2024-01-11T07:29:37;7.00;99.90
11639;DHT22;5875;35.940;126.892;2024-01-11T07:32:05;6.90;99.90
11639;DHT22;5875;35.940;126.892;2024-01-11T07:34:32;6.90;99.90
11639;DHT22;5875;35.940;126.892;2024-01-11T07:37:00;6.90;99.90
11639;DHT22;5875;35.940;126.892;2024-01-11T07:39:27;6.90;99.90
11639;DHT22;5875;35.940;126.892;2024-01-11T07:41:54;6.80;99.90
11639;DHT22;5875;35.940;126.892;2024-01-11T07:44:24;6.80;99.90
11639;DHT22;5875;35.940;126.892;2024-01-11T07:46:51;6.80;99.90
11639;DHT22;5875;35.940;126.892;2024-01-11T07:49:18;6.80;99.90
11639;DHT22;5875;35.940;126.892;2024-01-11T07:51:45;6.70;99.90
11639;DHT22;5875;35.940;126.892;2024-01-11T07:54:12;6.70;99.90
11639;DHT22;5875;35.940;126.892;2024-01-11T07:56:39;6.60;99.90
11639;DHT22;5875;35.940;126.892;2024-01-11T07:59:07;6.60;99.90
11639;DHT22;5875;35.940;126.892;2024-01-11T08:01:34;6.60;99.90
11639;DHT22;5875;35.940;126.892;2024-01-11T08:04:01;6.60;99.90
11639;DHT22;5875;35.940;126.892;2024-01-11T08:06:29;6.60;99.90
11639;DHT22;5875;35.940;126.892;2024-01-11T08:08:56;6.50;99.90
11639;DHT22;5875;35.940;126.892;2024-01-11T08:11:23;6.50;99.90
11639;DHT22;5875;35.940;126.892;2024-01-11T08:13:51;6.50;99.90
11639;DHT22;5875;35.940;126.892;2024-01-11T08:16:21;6.40;99.90
11639;DHT22;5875;35.940;126.892;2024-01-11T08:18:48;6.30;99.90
11639;DHT22;5875;35.940;126.892;2024-01-11T08:21:15;6.30;99.90
11639;DHT22;5875;35.940;126.892;2024-01-11T08:23:43;6.30;99.90
11639;DHT22;5875;35.940;126.892;2024-01-11T08:26:15;6.30;99.90
11639;DHT22;5875;35.940;126.892;2024-01-11T08:28:43;6.20;99.90
11639;DHT22;5875;35.940;126.892;2024-01-11T08:31:13;6.20;99.90
11639;DHT22;5875;35.940;126.892;2024-01-11T08:33:40;6.10;99.90
11639;DHT22;5875;35.940;126.892;2024-01-11T08:36:10;6.00;99.90
11639;DHT22;5875;35.940;126.892;2024-01-11T08:38:38;6.00;99.90
11639;DHT22;5875;35.940;126.892;2024-01-11T08:41:07;6.00;99.90
11639;DHT22;5875;35.940;126.892;2024-01-11T08:43:34;5.90;99.90
11639;DHT22;5875;35.940;126.892;2024-01-11T08:46:01;5.90;99.90
11639;DHT22;5875;35.940;126.892;2024-01-11T08:48:28;5.90;99.90
11639;DHT22;5875;35.940;126.892;2024-01-11T08:50:55;5.90;99.90
11639;DHT22;5875;35.940;126.892;2024-01-11T08:53:22;5.90;99.90
11639;DHT22;5875;35.940;126.892;2024-01-11T08:55:52;5.90;99.90
11639;DHT22;5875;35.940;126.892;2024-01-11T08:58:19;5.90;99.90
11639;DHT22;5875;35.940;126.892;2024-01-11T09:00:47;5.90;99.90
11639;DHT22;5875;35.940;126.892;2024-01-11T09:03:14;5.90;99.90
11639;DHT22;5875;35.940;126.892;2024-01-11T09:05:43;5.90;99.90
11639;DHT22;5875;35.940;126.892;2024-01-11T09:08:10;5.80;99.90
11639;DHT22;5875;35.940;126.892;2024-01-11T09:10:37;5.80;99.90
11639;DHT22;5875;35.940;126.892;2024-01-11T09:13:04;5.80;99.90
11639;DHT22;5875;35.940;126.892;2024-01-11T09:15:31;5.80;99.90
11639;DHT22;5875;35.940;126.892;2024-01-11T09:17:59;5.80;99.90
11639;DHT22;5875;35.940;126.892;2024-01-11T09:20:27;5.80;99.90
11639;DHT22;5875;35.940;126.892;2024-01-11T09:22:54;5.80;99.90
11639;DHT22;5875;35.940;126.892;2024-01-11T09:25:24;5.80;99.90
11639;DHT22;5875;35.940;126.892;2024-01-11T09:27:51;5.80;99.90
11639;DHT22;5875;35.940;126.892;2024-01-11T09:30:18;5.70;99.90
11639;DHT22;5875;35.940;126.892;2024-01-11T09:32:45;5.70;99.90
11639;DHT22;5875;35.940;126.892;2024-01-11T09:35:14;5.70;99.90
11639;DHT22;5875;35.940;126.892;2024-01-11T09:37:41;5.60;99.90
11639;DHT22;5875;35.940;126.892;2024-01-11T09:40:13;5.50;99.90
11639;DHT22;5875;35.940;126.892;2024-01-11T09:42:40;5.50;99.90
11639;DHT22;5875;35.940;126.892;2024-01-11T09:45:10;5.50;99.90
11639;DHT22;5875;35.940;126.892;2024-01-11T09:47:39;5.40;99.90
11639;DHT22;5875;35.940;126.892;2024-01-11T09:50:07;5.40;99.90
11639;DHT22;5875;35.940;126.892;2024-01-11T09:52:35;5.30;99.90
11639;DHT22;5875;35.940;126.892;2024-01-11T09:55:04;5.30;99.90
11639;DHT22;5875;35.940;126.892;2024-01-11T09:57:32;5.20;99.90
11639;DHT22;5875;35.940;126.892;2024-01-11T10:00:04;5.00;99.90
11639;DHT22;5875;35.940;126.892;2024-01-11T10:02:34;5.10;99.90
11639;DHT22;5875;35.940;126.892;2024-01-11T10:05:01;5.10;99.90
11639;DHT22;5875;35.940;126.892;2024-01-11T10:07:30;5.10;99.90
11639;DHT22;5875;35.940;126.892;2024-01-11T10:09:59;5.10;99.90
11639;DHT22;5875;35.940;126.892;2024-01-11T10:12:28;5.10;99.90
11639;DHT22;5875;35.940;126.892;2024-01-11T10:14:55;5.10;99.90
11639;DHT22;5875;35.940;126.892;2024-01-11T10:17:31;5.00;99.90
11639;DHT22;5875;35.940;126.892;2024-01-11T10:19:58;5.00;99.90
11639;DHT22;5875;35.940;126.892;2024-01-11T10:22:25;5.00;99.90
11639;DHT22;5875;35.940;126.892;2024-01-11T10:25:09;4.90;99.90
11639;DHT22;5875;35.940;126.892;2024-01-11T10:27:39;4.80;99.90
11639;DHT22;5875;35.940;126.892;2024-01-11T10:30:11;4.70;99.90
11639;DHT22;5875;35.940;126.892;2024-01-11T10:32:49;4.70;99.90
11639;DHT22;5875;35.940;126.892;2024-01-11T10:35:19;4.70;99.90
11639;DHT22;5875;35.940;126.892;2024-01-11T10:37:51;4.60;99.90
11639;DHT22;5875;35.940;126.892;2024-01-11T10:40:22;4.60;99.90
11639;DHT22;5875;35.940;126.892;2024-01-11T10:42:52;4.60;99.90
11639;DHT22;5875;35.940;126.892;2024-01-11T10:45:21;4.60;99.90
11639;DHT22;5875;35.940;126.892;2024-01-11T10:47:56;4.60;99.90
11639;DHT22;5875;35.940;126.892;2024-01-11T10:50:26;4.60;99.90
11639;DHT22;5875;35.940;126.892;2024-01-11T10:55:33;4.50;99.90
11639;DHT22;5875;35.940;126.892;2024-01-11T10:58:01;4.50;99.90
11639;DHT22;5875;35.940;126.892;2024-01-11T11:00:29;4.40;99.90
11639;DHT22;5875;35.940;126.892;2024-01-11T11:02:59;4.30;99.90
11639;DHT22;5875;35.940;126.892;2024-01-11T11:05:28;4.40;99.90
11639;DHT22;5875;35.940;126.892;2024-01-11T11:07:57;4.40;99.90
11639;DHT22;5875;35.940;126.892;2024-01-11T11:10:25;4.40;99.90
11639;DHT22;5875;35.940;126.892;2024-01-11T11:12:54;4.40;99.90
11639;DHT22;5875;35.940;126.892;2024-01-11T11:15:28;4.40;99.90
11639;DHT22;5875;35.940;126.892;2024-01-11T11:17:56;4.40;99.90
11639;DHT22;5875;35.940;126.892;2024-01-11T11:20:24;4.50;99.90
11639;DHT22;5875;35.940;126.892;2024-01-11T11:23:07;4.50;99.90
11639;DHT22;5875;35.940;126.892;2024-01-11T11:25:36;4.50;99.90
11639;DHT22;5875;35.940;126.892;2024-01-11T11:28:04;4.50;99.90
11639;DHT22;5875;35.940;126.892;2024-01-11T11:30:32;4.50;99.90
11639;DHT22;5875;35.940;126.892;2024-01-11T11:33:22;4.50;99.90
11639;DHT22;5875;35.940;126.892;2024-01-11T11:35:53;4.50;99.90
11639;DHT22;5875;35.940;126.892;2024-01-11T11:38:22;4.50;99.90
11639;DHT22;5875;35.940;126.892;2024-01-11T11:40:52;4.50;99.90
11639;DHT22;5875;35.940;126.892;2024-01-11T11:43:21;4.50;99.90
11639;DHT22;5875;35.940;126.892;2024-01-11T11:45:50;4.50;99.90
11639;DHT22;5875;35.940;126.892;2024-01-11T11:51:14;4.40;99.90
11639;DHT22;5875;35.940;126.892;2024-01-11T11:53:42;4.40;99.90
11639;DHT22;5875;35.940;126.892;2024-01-11T11:56:12;4.40;99.90
11639;DHT22;5875;35.940;126.892;2024-01-11T11:58:41;4.40;99.90
11639;DHT22;5875;35.940;126.892;2024-01-11T12:01:09;4.40;99.90
11639;DHT22;5875;35.940;126.892;2024-01-11T12:03:41;4.40;99.90
11639;DHT22;5875;35.940;126.892;2024-01-11T12:06:14;4.40;99.90
11639;DHT22;5875;35.940;126.892;2024-01-11T12:08:43;4.30;99.90
11639;DHT22;5875;35.940;126.892;2024-01-11T12:11:13;4.30;99.90
11639;DHT22;5875;35.940;126.892;2024-01-11T12:13:41;4.30;99.90
11639;DHT22;5875;35.940;126.892;2024-01-11T12:16:11;4.30;99.90
11639;DHT22;5875;35.940;126.892;2024-01-11T12:18:39;4.20;99.90
11639;DHT22;5875;35.940;126.892;2024-01-11T12:21:06;4.20;99.90
11639;DHT22;5875;35.940;126.892;2024-01-11T12:23:35;4.20;99.90
11639;DHT22;5875;35.940;126.892;2024-01-11T12:26:02;4.20;99.90
11639;DHT22;5875;35.940;126.892;2024-01-11T12:28:34;4.20;99.90
11639;DHT22;5875;35.940;126.892;2024-01-11T12:31:01;4.30;99.90
11639;DHT22;5875;35.940;126.892;2024-01-11T12:33:30;4.30;99.90
11639;DHT22;5875;35.940;126.892;2024-01-11T12:35:57;4.30;99.90
11639;DHT22;5875;35.940;126.892;2024-01-11T12:38:27;4.30;99.90
11639;DHT22;5875;35.940;126.892;2024-01-11T12:40:54;4.30;99.90
11639;DHT22;5875;35.940;126.892;2024-01-11T12:43:21;4.30;99.90
11639;DHT22;5875;35.940;126.892;2024-01-11T12:45:49;4.30;99.90
11639;DHT22;5875;35.940;126.892;2024-01-11T12:48:16;4.30;99.90
11639;DHT22;5875;35.940;126.892;2024-01-11T12:50:46;4.40;99.90
11639;DHT22;5875;35.940;126.892;2024-01-11T12:53:19;4.40;99.90
11639;DHT22;5875;35.940;126.892;2024-01-11T12:56:03;4.50;99.90
11639;DHT22;5875;35.940;126.892;2024-01-11T12:58:34;4.50;99.90
11639;DHT22;5875;35.940;126.892;2024-01-11T13:01:05;4.50;99.90
11639;DHT22;5875;35.940;126.892;2024-01-11T13:03:39;4.50;99.90
11639;DHT22;5875;35.940;126.892;2024-01-11T13:06:06;4.60;99.90
11639;DHT22;5875;35.940;126.892;2024-01-11T13:08:35;4.60;99.90
11639;DHT22;5875;35.940;126.892;2024-01-11T13:11:03;4.70;99.90
11639;DHT22;5875;35.940;126.892;2024-01-11T13:13:36;4.70;99.90
11639;DHT22;5875;35.940;126.892;2024-01-11T13:16:04;4.70;99.90
11639;DHT22;5875;35.940;126.892;2024-01-11T13:18:40;4.70;99.90
11639;DHT22;5875;35.940;126.892;2024-01-11T13:21:10;4.80;99.90
11639;DHT22;5875;35.940;126.892;2024-01-11T13:23:41;4.70;99.90
11639;DHT22;5875;35.940;126.892;2024-01-11T13:26:08;4.80;99.90
11639;DHT22;5875;35.940;126.892;2024-01-11T13:28:35;4.80;99.90
11639;DHT22;5875;35.940;126.892;2024-01-11T13:31:02;4.80;99.90
11639;DHT22;5875;35.940;126.892;2024-01-11T13:33:30;4.80;99.90
11639;DHT22;5875;35.940;126.892;2024-01-11T13:35:57;4.80;99.90
11639;DHT22;5875;35.940;126.892;2024-01-11T13:38:25;4.80;99.90
11639;DHT22;5875;35.940;126.892;2024-01-11T13:40:52;4.80;99.90
11639;DHT22;5875;35.940;126.892;2024-01-11T13:43:19;4.90;99.90
11639;DHT22;5875;35.940;126.892;2024-01-11T13:45:46;4.80;99.90
11639;DHT22;5875;35.940;126.892;2024-01-11T13:48:13;4.90;99.90
11639;DHT22;5875;35.940;126.892;2024-01-11T13:50:41;4.90;99.90
11639;DHT22;5875;35.940;126.892;2024-01-11T13:53:08;4.90;99.90
11639;DHT22;5875;35.940;126.892;2024-01-11T13:55:38;4.90;99.90
11639;DHT22;5875;35.940;126.892;2024-01-11T13:58:06;4.90;99.90
11639;DHT22;5875;35.940;126.892;2024-01-11T14:00:33;4.90;99.90
11639;DHT22;5875;35.940;126.892;2024-01-11T14:03:00;4.90;99.90
11639;DHT22;5875;35.940;126.892;2024-01-11T14:05:30;4.90;99.90
11639;DHT22;5875;35.940;126.892;2024-01-11T14:07:57;4.90;99.90
11639;DHT22;5875;35.940;126.892;2024-01-11T14:10:25;4.90;99.90
11639;DHT22;5875;35.940;126.892;2024-01-11T14:12:53;4.90;99.90
11639;DHT22;5875;35.940;126.892;2024-01-11T14:15:20;4.90;99.90
11639;DHT22;5875;35.940;126.892;2024-01-11T14:17:47;4.90;99.90
11639;DHT22;5875;35.940;126.892;2024-01-11T14:20:14;4.90;99.90
11639;DHT22;5875;35.940;126.892;2024-01-11T14:22:42;4.90;99.90
11639;DHT22;5875;35.940;126.892;2024-01-11T14:25:13;4.80;99.90
11639;DHT22;5875;35.940;126.892;2024-01-11T14:27:41;4.80;99.90
11639;DHT22;5875;35.940;126.892;2024-01-11T14:30:09;4.80;99.90
11639;DHT22;5875;35.940;126.892;2024-01-11T14:32:36;4.80;99.90
11639;DHT22;5875;35.940;126.892;2024-01-11T14:35:04;4.80;99.90
11639;DHT22;5875;35.940;126.892;2024-01-11T14:37:32;4.70;99.90
11639;DHT22;5875;35.940;126.892;2024-01-11T14:40:00;4.70;99.90
11639;DHT22;5875;35.940;126.892;2024-01-11T14:42:27;4.70;99.90
11639;DHT22;5875;35.940;126.892;2024-01-11T14:44:55;4.80;99.90
11639;DHT22;5875;35.940;126.892;2024-01-11T14:47:22;4.80;99.90
11639;DHT22;5875;35.940;126.892;2024-01-11T14:49:50;4.80;99.90
11639;DHT22;5875;35.940;126.892;2024-01-11T14:52:17;4.70;99.90
11639;DHT22;5875;35.940;126.892;2024-01-11T14:54:47;4.70;99.90
11639;DHT22;5875;35.940;126.892;2024-01-11T14:57:15;4.70;99.90
11639;DHT22;5875;35.940;126.892;2024-01-11T14:59:43;4.70;99.90
11639;DHT22;5875;35.940;126.892;2024-01-11T15:02:11;4.70;99.90
11639;DHT22;5875;35.940;126.892;2024-01-11T15:04:38;4.70;99.90
11639;DHT22;5875;35.940;126.892;2024-01-11T15:07:06;4.70;99.90
11639;DHT22;5875;35.940;126.892;2024-01-11T15:09:34;4.70;99.90
11639;DHT22;5875;35.940;126.892;2024-01-11T15:12:02;4.70;99.90
11639;DHT22;5875;35.940;126.892;2024-01-11T15:14:29;4.70;99.90
11639;DHT22;5875;35.940;126.892;2024-01-11T15:16:56;4.70;99.90
11639;DHT22;5875;35.940;126.892;2024-01-11T15:19:24;4.70;99.90
11639;DHT22;5875;35.940;126.892;2024-01-11T15:21:52;4.70;99.90
11639;DHT22;5875;35.940;126.892;2024-01-11T15:24:19;4.70;99.90
11639;DHT22;5875;35.940;126.892;2024-01-11T15:26:47;4.70;99.90
11639;DHT22;5875;35.940;126.892;2024-01-11T15:29:15;4.70;99.90
11639;DHT22;5875;35.940;126.892;2024-01-11T15:31:42;4.70;99.90
11639;DHT22;5875;35.940;126.892;2024-01-11T15:34:12;4.70;99.90
11639;DHT22;5875;35.940;126.892;2024-01-11T15:36:40;4.70;99.90
11639;DHT22;5875;35.940;126.892;2024-01-11T15:39:07;4.70;99.90
11639;DHT22;5875;35.940;126.892;2024-01-11T15:41:35;4.70;99.90